Messwerte Altus

Temperatur

Temperatur
°C
1623448800 17.00 17.00 36
1623452400 18.00 18.00 36
1623456000 19.00 19.00 36
1623459600 20.00 20.00 34
1623463200 21.00 21.00 32
1623466800 22.00 22.00 30
1623470400 23.00 23.00 29
1623474000 0.00 0.00 29
1623477600 1.00 1.00 28
1623481200 2.00 2.00 27
1623484800 3.00 3.00 26
1623488400 4.00 4.00 24
1623492000 5.00 5.00 22
1623495600 6.00 6.00 22
1623499200 7.00 7.00
1623502800 8.00 8.00 22
1623506400 9.00 9.00 24
1623510000 10.00 10.00 26
1623513600 11.00 11.00 27
1623517200 12.00 12.00 29
1623520800 13.00 13.00
1623524400 14.00 14.00 31
1623528000 15.00 15.00 32
1623531600 16.00 16.00 33

Aktuellste Messwerte

Wettercharakter
Wetter: recht sonnig
Temperatur
33 °C
Feuchtigkeit
55 %
Wind
10 km/hWindrichtung: Süd
Luftdruck
1014 hPa
Messzeit: 12. Juni 2021, 16.00Datenquelle: METAR

Weitere Messstationen in der Nähe

Messstation Temperatur Entfernung
Altus 34 °C 8 km
Frederick 33 °C 43 km
Hobart 33 °C 43 km
Vernon 34.0 °C 47 km
Clinton 34 °C 77 km
Lawton 33 °C 78 km
Fort Sill 33 °C 80 km

Wind

Windrichtung Böen Mittelwind
° km/h km/h
1623448800 17.00 16.00 - 17.00 170° 20
1623452400 18.00 17.00 - 18.00 160° 25
1623456000 19.00 18.00 - 19.00 150° 20
1623459600 20.00 19.00 - 20.00 140° 20
1623463200 21.00 20.00 - 21.00 140° 20
1623466800 22.00 21.00 - 22.00 140° 20
1623470400 23.00 22.00 - 23.00 130° 20
1623474000 0.00 23.00 - 0.00 120° 20
1623477600 1.00 0.00 - 1.00 120° 20
1623481200 2.00 1.00 - 2.00 130° 25
1623484800 3.00 2.00 - 3.00 130° 15
1623488400 4.00 3.00 - 4.00 80° 70 45
1623492000 5.00 4.00 - 5.00 90° 20
1623495600 6.00 5.00 - 6.00 100° 20
1623499200 7.00 6.00 - 7.00
1623502800 8.00 7.00 - 8.00 140° 15
1623506400 9.00 8.00 - 9.00 150° 15
1623510000 10.00 9.00 - 10.00 80° 10
1623513600 11.00 10.00 - 11.00 60° 15
1623517200 12.00 11.00 - 12.00 80° 10
1623520800 13.00 12.00 - 13.00
1623524400 14.00 13.00 - 14.00 100° 10
1623528000 15.00 14.00 - 15.00 120° 10
1623531600 16.00 15.00 - 16.00 180° 10

Ihre Wetterstation

Fehlt Ihre Wetterstation auf unserem Portal?

Schreiben Sie an network@meteonews.ch

Klima

Wann ist es am wärmsten? Wann regnet es am wenigsten? Unsere Klimadaten geben Auskunft.